Time;durP1;ratioP1;P1;durP2;ratioP2;P2;SDS_P1;SDS_P2;PMS_P1;PMS_P2;Temp;Humidity;BMP_temperature;BMP_pressure;BME280_temperature;BME280_humidity;BME280_pressure;Samples;Min_cycle;Max_cycle;Signal;HPM_P1;HPM_P2
2021/04/28 10:02:28;;;;;;;14.13;6.57;;;16.20;51.40;;;;;;12088644;27;20371;-74
2021/04/28 10:08:19;;;;;;;9.50;6.35;;;16.70;51.30;;;;;;12025465;28;20048;-73
2021/04/28 10:14:07;;;;;;;10.52;5.88;;;17.50;46.50;;;;;;12024790;28;20057;-72
2021/04/28 10:19:57;;;;;;;12.88;7.28;;;17.90;46.00;;;;;;12023926;28;20057;-73
2021/04/28 10:25:49;;;;;;;13.10;7.20;;;18.70;44.00;;;;;;12019751;28;20049;-72
2021/04/28 10:31:37;;;;;;;10.95;6.15;;;19.40;44.20;;;;;;12017266;28;20137;-73
2021/04/28 10:37:28;;;;;;;14.48;7.32;;;19.80;43.00;;;;;;12021709;28;20049;-73
2021/04/28 10:43:17;;;;;;;16.65;6.50;;;19.90;43.10;;;;;;12016110;28;20053;-75
2021/04/28 10:49:16;;;;;;;10.45;5.53;;;19.90;42.90;;;;;;12017270;28;20053;-73
2021/04/28 10:55:04;;;;;;;13.27;6.18;;;20.10;43.50;;;;;;12015742;28;20135;-72
2021/04/28 11:01:11;;;;;;;10.35;6.32;;;20.00;43.10;;;;;;12017234;28;20049;-73
2021/04/28 11:06:57;;;;;;;13.93;6.68;;;20.20;43.40;;;;;;12016177;28;20049;-75
2021/04/28 11:13:08;;;;;;;11.50;6.90;;;20.30;42.20;;;;;;11979505;28;20049;-73
2021/04/28 11:19:14;;;;;;;16.02;5.88;;;20.30;42.30;;;;;;11984813;28;20442;-73
2021/04/28 11:25:07;;;;;;;7.40;5.00;;;20.40;41.70;;;;;;11982184;28;20049;-73
2021/04/28 11:30:54;;;;;;;15.43;6.67;;;20.20;42.60;;;;;;11985697;28;20077;-72
2021/04/28 11:36:49;;;;;;;12.60;5.88;;;20.40;41.90;;;;;;11957298;28;20049;-71
2021/04/28 11:42:35;;;;;;;10.80;5.40;;;20.40;42.10;;;;;;11958519;28;20565;-72
2021/04/28 11:48:24;;;;;;;8.48;5.25;;;20.80;40.70;;;;;;11983059;28;20523;-73
2021/04/28 11:54:11;;;;;;;8.80;4.90;;;21.00;40.10;;;;;;11965123;28;21056;-74
2021/04/28 12:00:04;;;;;;;8.45;4.90;;;21.20;39.70;;;;;;11983346;28;20076;-72
2021/04/28 12:05:54;;;;;;;10.52;5.18;;;21.30;40.10;;;;;;11978992;28;20121;-78
2021/04/28 12:11:47;;;;;;;6.20;4.50;;;21.00;39.10;;;;;;11985340;28;20053;-81
2021/04/28 12:17:35;;;;;;;11.97;5.77;;;20.90;38.70;;;;;;11960847;28;20056;-76
2021/04/28 12:23:24;;;;;;;9.93;4.47;;;21.10;38.00;;;;;;11982034;28;20341;-76
2021/04/28 12:29:21;;;;;;;8.60;4.85;;;21.00;38.20;;;;;;11976620;28;20530;-76
2021/04/28 12:35:15;;;;;;;8.10;4.82;;;20.90;38.50;;;;;;11978099;28;20415;-75
2021/04/28 12:41:07;;;;;;;10.50;6.25;;;20.90;40.50;;;;;;11985013;28;20053;-73
2021/04/28 12:46:55;;;;;;;11.82;5.95;;;21.00;42.00;;;;;;11975992;28;20067;-74
2021/04/28 12:52:46;;;;;;;10.48;6.28;;;20.80;42.60;;;;;;11933779;28;20057;-73
2021/04/28 12:58:43;;;;;;;7.53;5.40;;;20.60;43.20;;;;;;11986937;28;20053;-73
2021/04/28 13:04:30;;;;;;;23.02;6.15;;;20.20;44.80;;;;;;11957199;28;20072;-74
2021/04/28 13:10:18;;;;;;;14.45;5.88;;;20.10;48.40;;;;;;11977098;28;20083;-74
2021/04/28 13:16:07;;;;;;;11.68;5.38;;;19.90;51.10;;;;;;11974731;28;21273;-73
2021/04/28 13:21:55;;;;;;;13.98;5.82;;;20.00;50.80;;;;;;11975940;28;20076;-74
2021/04/28 13:27:42;;;;;;;23.02;6.53;;;19.90;49.70;;;;;;11975737;28;20049;-73
2021/04/28 13:33:39;;;;;;;13.57;5.60;;;20.10;49.70;;;;;;11986495;28;20585;-74
2021/04/28 13:39:28;;;;;;;13.65;5.43;;;20.20;49.10;;;;;;11982331;28;20954;-74
2021/04/28 13:45:15;;;;;;;8.90;5.22;;;20.20;48.90;;;;;;11976567;28;20060;-72
2021/04/28 13:51:05;;;;;;;9.07;4.95;;;20.20;49.30;;;;;;11981544;28;20056;-74
2021/04/28 13:56:53;;;;;;;7.35;3.70;;;20.30;51.00;;;;;;11978429;28;20551;-74
2021/04/28 14:02:41;;;;;;;7.97;3.53;;;20.60;53.30;;;;;;11976142;28;20452;-73
2021/04/28 14:08:29;;;;;;;8.75;4.50;;;21.30;53.80;;;;;;11977940;28;20419;-75
2021/04/28 14:14:16;;;;;;;6.85;3.42;;;21.80;54.60;;;;;;11978027;28;20084;-75
2021/04/28 14:20:03;;;;;;;8.82;4.30;;;22.00;53.60;;;;;;11976448;28;20057;-78
2021/04/28 14:25:50;;;;;;;8.57;4.57;;;22.00;54.10;;;;;;11982926;28;20061;-77
2021/04/28 14:31:37;;;;;;;9.63;4.10;;;21.70;55.10;;;;;;11981109;28;20048;-78
2021/04/28 14:37:23;;;;;;;8.80;3.25;;;21.70;55.60;;;;;;11979721;28;20045;-78
2021/04/28 14:43:13;;;;;;;9.48;3.58;;;22.00;53.60;;;;;;11970441;28;20056;-83
2021/04/28 14:48:59;;;;;;;6.75;3.67;;;22.10;52.80;;;;;;11946372;28;20567;-83
2021/04/28 14:54:46;;;;;;;8.30;3.75;;;21.80;53.30;;;;;;11988152;28;20049;-76
2021/04/28 15:00:33;;;;;;;11.40;4.68;;;21.60;53.60;;;;;;11995500;28;20077;-76
2021/04/28 15:06:19;;;;;;;7.28;4.47;;;21.40;54.50;;;;;;11998270;28;20060;-76
2021/04/28 15:12:06;;;;;;;7.32;4.13;;;21.20;55.30;;;;;;11990543;28;20053;-76
2021/04/28 15:17:53;;;;;;;10.43;5.22;;;21.10;55.90;;;;;;11983033;28;20056;-76
2021/04/28 15:23:39;;;;;;;10.35;5.28;;;21.00;56.50;;;;;;11987067;28;20062;-76
2021/04/28 15:29:26;;;;;;;8.57;4.53;;;20.90;57.10;;;;;;11984056;28;20095;-76
2021/04/28 15:35:15;;;;;;;10.27;4.82;;;21.40;56.80;;;;;;11981825;28;20396;-75
2021/04/28 15:41:01;;;;;;;10.82;4.85;;;21.90;55.30;;;;;;11969795;28;20107;-75
2021/04/28 15:46:47;;;;;;;10.05;4.93;;;21.90;54.20;;;;;;11983509;28;20045;-75
2021/04/28 15:52:35;;;;;;;9.43;4.38;;;21.50;54.30;;;;;;11982075;28;20107;-75
2021/04/28 15:58:22;;;;;;;12.77;4.07;;;20.80;55.50;;;;;;11981713;28;20052;-74
2021/04/28 16:04:08;;;;;;;5.55;4.00;;;21.40;58.00;;;;;;11976138;28;20049;-76
2021/04/28 16:09:55;;;;;;;8.88;4.70;;;22.60;55.10;;;;;;11981912;28;20072;-74
2021/04/28 16:15:42;;;;;;;9.75;4.80;;;22.30;56.20;;;;;;11985535;28;20052;-75
2021/04/28 16:21:28;;;;;;;8.15;5.05;;;21.60;56.50;;;;;;11984489;28;20056;-74
2021/04/28 16:27:15;;;;;;;9.88;5.38;;;21.10;58.40;;;;;;11982560;28;20056;-73
2021/04/28 16:33:02;;;;;;;11.10;5.65;;;20.50;60.50;;;;;;11982013;28;20049;-74
2021/04/28 16:38:48;;;;;;;8.07;5.55;;;20.10;61.60;;;;;;11984935;28;20048;-74
2021/04/28 16:44:35;;;;;;;9.90;5.80;;;19.80;64.40;;;;;;11980439;28;20071;-73
2021/04/28 16:50:22;;;;;;;11.85;6.55;;;19.70;64.80;;;;;;11980758;28;20048;-74
2021/04/28 16:56:08;;;;;;;16.83;10.10;;;19.30;69.40;;;;;;11981208;28;20061;-79
2021/04/28 17:01:55;;;;;;;46.38;14.73;;;18.00;80.10;;;;;;11986439;28;20049;-80
2021/04/28 17:07:42;;;;;;;206.50;31.55;;;17.10;90.50;;;;;;11981862;28;20057;-81
2021/04/28 17:13:31;;;;;;;85.63;39.78;;;15.20;93.80;;;;;;11977792;28;20450;-81
2021/04/28 17:19:18;;;;;;;85.05;46.88;;;14.80;99.90;;;;;;11991924;28;20046;-83
2021/04/28 17:25:06;;;;;;;74.47;39.30;;;15.80;99.90;;;;;;11995570;28;20080;-79
2021/04/28 17:30:54;;;;;;;60.08;35.92;;;16.60;99.90;;;;;;11992938;28;20071;-80
2021/04/28 17:36:44;;;;;;;69.50;37.42;;;17.20;99.90;;;;;;11995173;28;20192;-82
2021/04/28 17:42:31;;;;;;;44.58;27.73;;;18.40;99.90;;;;;;11993070;28;20080;-79
2021/04/28 17:48:20;;;;;;;55.63;31.15;;;19.70;99.90;;;;;;12001121;28;20637;-82
2021/04/28 17:54:07;;;;;;;52.80;30.80;;;19.20;99.90;;;;;;12016500;28;20089;-80
2021/04/28 17:59:53;;;;;;;47.47;29.77;;;18.30;99.90;;;;;;12001914;28;20055;-82
2021/04/28 18:05:40;;;;;;;55.00;32.95;;;17.70;99.90;;;;;;12001200;28;20052;-81
2021/04/28 18:11:28;;;;;;;62.58;36.92;;;17.50;99.90;;;;;;11998360;28;20059;-80
2021/04/28 18:17:15;;;;;;;59.60;34.17;;;17.30;99.90;;;;;;11995562;28;20057;-80
2021/04/28 18:23:02;;;;;;;53.80;35.83;;;17.20;99.90;;;;;;11999464;28;20056;-79
2021/04/28 18:28:51;;;;;;;52.63;33.75;;;17.00;99.90;;;;;;11992519;28;20526;-81
2021/04/28 18:34:37;;;;;;;54.20;32.42;;;16.80;99.90;;;;;;12000743;28;20449;-80
2021/04/28 18:40:26;;;;;;;68.28;39.17;;;16.80;99.90;;;;;;12010242;28;20046;-82
2021/04/28 18:46:13;;;;;;;51.53;31.60;;;16.70;99.90;;;;;;12011772;28;20045;-80
2021/04/28 18:52:00;;;;;;;50.70;31.70;;;16.60;99.90;;;;;;12010896;28;20056;-80
2021/04/28 18:57:47;;;;;;;57.40;34.33;;;16.60;99.90;;;;;;12006486;28;20089;-81
2021/04/28 19:03:35;;;;;;;52.10;31.33;;;16.70;99.90;;;;;;12006495;28;20045;-81
2021/04/28 19:09:22;;;;;;;51.53;30.63;;;16.60;99.90;;;;;;12000012;28;20475;-82
2021/04/28 19:15:12;;;;;;;45.03;28.02;;;16.60;99.90;;;;;;11997457;28;20049;-82
2021/04/28 19:21:00;;;;;;;48.88;30.45;;;16.60;99.90;;;;;;11996400;28;20049;-82
2021/04/28 19:26:50;;;;;;;45.00;29.45;;;16.60;99.90;;;;;;11996106;28;20048;-82
2021/04/28 19:32:37;;;;;;;46.00;28.95;;;16.40;99.90;;;;;;11983152;28;20539;-74
2021/04/28 19:38:25;;;;;;;49.85;31.52;;;16.40;99.90;;;;;;11980703;28;21026;-76
2021/04/28 19:44:11;;;;;;;52.03;29.30;;;16.30;99.90;;;;;;11966679;28;20049;-74
2021/04/28 19:49:57;;;;;;;51.63;31.85;;;16.30;99.90;;;;;;11998695;28;20092;-75
2021/04/28 19:55:46;;;;;;;51.83;30.40;;;16.20;99.90;;;;;;11970505;28;20057;-75
2021/04/28 20:01:33;;;;;;;50.58;31.02;;;16.10;99.90;;;;;;11962033;28;20056;-75
2021/04/28 20:07:19;;;;;;;51.47;29.98;;;16.10;99.90;;;;;;11937271;28;20058;-75
2021/04/28 20:13:07;;;;;;;47.47;28.92;;;16.10;99.90;;;;;;11935837;28;20060;-74
2021/04/28 20:18:53;;;;;;;50.70;28.80;;;16.10;99.90;;;;;;11951538;28;20428;-74
2021/04/28 20:24:40;;;;;;;51.55;28.15;;;15.90;99.90;;;;;;11955291;28;20595;-74
2021/04/28 20:30:27;;;;;;;48.55;27.77;;;15.70;99.90;;;;;;11980698;28;21880;-74
2021/04/28 20:36:14;;;;;;;172.05;93.93;;;15.60;99.90;;;;;;11980759;28;20495;-74
2021/04/28 20:42:01;;;;;;;53.80;30.13;;;15.60;99.90;;;;;;11978021;28;20458;-74
2021/04/28 20:47:48;;;;;;;49.42;27.58;;;15.50;99.90;;;;;;11980056;28;20049;-74
2021/04/28 20:53:35;;;;;;;46.40;27.08;;;15.40;99.90;;;;;;11975896;28;20056;-75
2021/04/28 20:59:21;;;;;;;49.75;26.80;;;15.20;99.90;;;;;;11980551;28;20045;-75
2021/04/28 21:05:11;;;;;;;53.65;28.30;;;15.20;99.90;;;;;;11976772;28;20672;-74
2021/04/28 21:11:01;;;;;;;59.30;30.38;;;15.00;99.90;;;;;;11973461;28;20079;-73
2021/04/28 21:16:47;;;;;;;44.78;27.80;;;15.00;99.90;;;;;;11973665;28;20517;-75
2021/04/28 21:22:34;;;;;;;43.55;26.60;;;14.90;99.90;;;;;;11981385;28;20092;-73
